createdAt,value
2022-09-16T00:00:31.843Z,99248.16
2022-09-16T00:02:58.776Z,99269.19
2022-09-16T00:05:25.991Z,99256.81
2022-09-16T00:07:53.729Z,99254.75
2022-09-16T00:10:21.497Z,99241.84
2022-09-16T00:12:49.266Z,99233.34
2022-09-16T00:15:17.030Z,99257.78
2022-09-16T00:17:43.625Z,99229.78
2022-09-16T00:20:11.003Z,99254.31
2022-09-16T00:22:37.686Z,99251.25
2022-09-16T00:25:04.620Z,99255.34
2022-09-16T00:27:33.477Z,99265.19
2022-09-16T00:30:00.176Z,99263.19
2022-09-16T00:32:26.898Z,99262.47
2022-09-16T00:34:53.546Z,99262.88
2022-09-16T00:37:20.236Z,99269.44
2022-09-16T00:39:50.550Z,99250.19
2022-09-16T00:42:18.571Z,99253.69
2022-09-16T00:44:55.991Z,99258.59
2022-09-16T00:47:31.490Z,99265.34
2022-09-16T00:50:05.523Z,99270.25
2022-09-16T00:52:32.570Z,99267.19
2022-09-16T00:55:02.776Z,99245.25
2022-09-16T00:57:29.720Z,99262.47
2022-09-16T00:59:57.345Z,99265.75
2022-09-16T01:02:24.848Z,99261.34
2022-09-16T01:05:01.500Z,99264.81
2022-09-16T01:07:36.459Z,99261.69
2022-09-16T01:10:03.467Z,99261.69
2022-09-16T01:12:32.575Z,99279.50
2022-09-16T01:15:01.825Z,99255.47
2022-09-16T01:17:54.722Z,99267.53
2022-09-16T01:20:42.423Z,99269.41
2022-09-16T01:23:46.537Z,99270.34
2022-09-16T01:26:47.498Z,99266.78
2022-09-16T01:29:46.581Z,99271.06
2022-09-16T01:32:45.400Z,99273.34
2022-09-16T01:35:22.257Z,99269.19
2022-09-16T01:38:22.821Z,99268.00
2022-09-16T01:41:02.035Z,99268.00
2022-09-16T01:43:38.433Z,99258.03
2022-09-16T01:46:12.433Z,99252.69
2022-09-16T01:48:53.018Z,99263.50
2022-09-16T01:51:33.667Z,99263.88
2022-09-16T01:54:13.483Z,99260.03
2022-09-16T01:56:46.449Z,99258.59
2022-09-16T01:59:19.142Z,99250.50
2022-09-16T02:01:57.139Z,99259.28
2022-09-16T02:04:40.615Z,99253.22
2022-09-16T02:07:11.567Z,99258.25
2022-09-16T02:09:43.489Z,99223.91
2022-09-16T02:12:14.718Z,99260.78
2022-09-16T02:14:44.643Z,99243.97
2022-09-16T02:17:15.363Z,99242.25
2022-09-16T02:19:44.551Z,99242.69
2022-09-16T02:22:15.967Z,99222.63
2022-09-16T02:24:46.107Z,99198.13
2022-09-16T02:27:21.557Z,99202.25
2022-09-16T02:29:56.448Z,99212.25
2022-09-16T02:32:26.691Z,99230.69
2022-09-16T02:34:54.966Z,99228.88
2022-09-16T02:37:37.382Z,99244.66
2022-09-16T02:40:11.457Z,99263.63
2022-09-16T02:42:38.209Z,99238.88
2022-09-16T02:45:05.380Z,99255.41
2022-09-16T02:47:40.709Z,99262.81
2022-09-16T02:50:21.255Z,99254.66
2022-09-16T02:52:53.552Z,99267.94
2022-09-16T02:55:56.547Z,99224.59
2022-09-16T02:58:23.467Z,99262.31
2022-09-16T03:00:53.760Z,99267.00
2022-09-16T03:03:20.788Z,99267.75
2022-09-16T03:06:05.827Z,99264.03
2022-09-16T03:08:34.318Z,99268.03
2022-09-16T03:11:31.675Z,99258.25
2022-09-16T03:14:16.872Z,99262.09
2022-09-16T03:17:11.304Z,99254.75
2022-09-16T03:19:37.841Z,99252.25
2022-09-16T03:22:26.826Z,99259.94
2022-09-16T03:25:02.433Z,99245.25
2022-09-16T03:27:43.184Z,99228.88
2022-09-16T03:30:11.871Z,99255.16
2022-09-16T03:32:43.500Z,99254.44
2022-09-16T03:35:28.524Z,99247.47
2022-09-16T03:37:58.420Z,99220.50
2022-09-16T03:40:29.558Z,99254.00
2022-09-16T03:42:57.758Z,99223.50
2022-09-16T03:45:24.452Z,99148.41
2022-09-16T03:47:52.849Z,99169.44
2022-09-16T03:50:21.158Z,99229.75
2022-09-16T03:52:47.781Z,99197.03
2022-09-16T03:55:27.558Z,99209.69
2022-09-16T03:57:54.715Z,99231.44
2022-09-16T04:00:22.997Z,99207.78
2022-09-16T04:02:49.773Z,99237.56
2022-09-16T04:05:16.863Z,99228.06
2022-09-16T04:07:43.404Z,99224.66
2022-09-16T04:10:12.222Z,99245.94
2022-09-16T04:12:38.883Z,99231.50
2022-09-16T04:15:06.031Z,99146.31
2022-09-16T04:17:33.424Z,99192.03
2022-09-16T04:20:00.202Z,99167.88
2022-09-16T04:22:31.497Z,99236.13
2022-09-16T04:24:58.344Z,99194.38
2022-09-16T04:27:25.758Z,99234.75
2022-09-16T04:29:52.396Z,99231.63
2022-09-16T04:32:19.024Z,99226.59
2022-09-16T04:34:45.776Z,99221.00
2022-09-16T04:37:12.441Z,99239.97
2022-09-16T04:39:39.037Z,99235.78
2022-09-16T04:42:06.895Z,99228.81
2022-09-16T04:44:33.540Z,99225.34
2022-09-16T04:47:00.511Z,99241.94
2022-09-16T04:49:30.314Z,99227.88
2022-09-16T04:51:57.438Z,99211.59
2022-09-16T04:54:24.018Z,99217.50
2022-09-16T04:56:50.586Z,99181.41
2022-09-16T04:59:17.155Z,99228.72
2022-09-16T05:01:43.940Z,99238.00
2022-09-16T05:04:10.728Z,99229.13
2022-09-16T05:06:41.016Z,99239.78
2022-09-16T05:09:09.735Z,99232.97
2022-09-16T05:11:38.874Z,99228.34
2022-09-16T05:14:12.971Z,99238.25
2022-09-16T05:16:39.677Z,99235.94
2022-09-16T05:19:06.303Z,99231.00
2022-09-16T05:21:35.616Z,99230.31
2022-09-16T05:24:05.151Z,99228.44
2022-09-16T05:26:33.130Z,99229.47
2022-09-16T05:29:02.256Z,99224.94
2022-09-16T05:31:30.963Z,99224.81
2022-09-16T05:34:06.548Z,99219.59
2022-09-16T05:36:36.284Z,99170.75
2022-09-16T05:41:54.226Z,99227.97
2022-09-16T05:44:20.987Z,99229.97
2022-09-16T05:46:47.551Z,99237.78
2022-09-16T05:49:14.349Z,99227.28
2022-09-16T05:51:44.116Z,99221.09
2022-09-16T05:54:10.696Z,99221.13
2022-09-16T05:56:37.352Z,99228.22
2022-09-16T05:59:04.488Z,99230.31
2022-09-16T06:01:34.870Z,99235.66
2022-09-16T06:04:04.310Z,99209.22
2022-09-16T06:06:36.181Z,99241.88
2022-09-16T06:09:10.673Z,99242.47
2022-09-16T06:11:45.649Z,99262.97
2022-09-16T06:14:13.193Z,99245.00
2022-09-16T06:16:40.520Z,99249.06
2022-09-16T06:19:10.610Z,99250.50
2022-09-16T06:22:00.335Z,99174.09
2022-09-16T06:24:27.140Z,99232.69
2022-09-16T06:26:53.701Z,99238.41
2022-09-16T06:29:20.438Z,99246.91
2022-09-16T06:31:47.019Z,99241.00
2022-09-16T06:34:18.532Z,99232.06
2022-09-16T06:36:45.813Z,99241.66
2022-09-16T06:39:14.231Z,99247.47
2022-09-16T06:41:40.930Z,99193.72
2022-09-16T06:44:10.329Z,99230.44
2022-09-16T06:46:37.547Z,99237.41
2022-09-16T06:49:06.017Z,99243.88
2022-09-16T06:51:34.542Z,99235.97
2022-09-16T06:54:06.082Z,99239.19
2022-09-16T06:56:35.940Z,99240.25
2022-09-16T06:59:02.673Z,99233.81
2022-09-16T07:01:30.876Z,99224.03
2022-09-16T07:03:58.553Z,99238.63
2022-09-16T07:06:49.592Z,99251.88
2022-09-16T07:09:16.273Z,99236.19
2022-09-16T07:11:42.930Z,99242.28
2022-09-16T07:14:09.887Z,99216.63
2022-09-16T07:16:36.886Z,99227.38
2022-09-16T07:19:04.382Z,99226.81
2022-09-16T07:21:31.415Z,99217.41
2022-09-16T07:24:01.201Z,99242.28
2022-09-16T07:26:33.453Z,99239.59
2022-09-16T07:29:03.493Z,99240.91
2022-09-16T07:31:33.019Z,99242.75
2022-09-16T07:34:04.274Z,99234.75
2022-09-16T07:36:34.404Z,99218.00
2022-09-16T07:39:01.440Z,99247.16
2022-09-16T07:42:05.833Z,99243.91
2022-09-16T07:44:32.942Z,99252.50
2022-09-16T07:46:59.571Z,99250.88
2022-09-16T07:49:26.185Z,99249.69
2022-09-16T07:51:52.800Z,99250.19
2022-09-16T07:54:20.043Z,99251.69
2022-09-16T07:56:47.324Z,99253.09
2022-09-16T07:59:18.353Z,99248.19
2022-09-16T08:01:46.390Z,99240.03
2022-09-16T08:04:13.700Z,99259.91
2022-09-16T08:06:48.940Z,99246.78
2022-09-16T08:09:37.315Z,99221.81
2022-09-16T08:12:04.639Z,99266.53
2022-09-16T08:14:31.468Z,99238.66
2022-09-16T08:16:58.080Z,99263.53
2022-09-16T08:19:24.998Z,99264.69
2022-09-16T08:21:52.648Z,99259.56
2022-09-16T08:24:19.307Z,99258.06
2022-09-16T08:26:45.979Z,99222.31
2022-09-16T08:29:12.952Z,99267.72
2022-09-16T08:31:39.861Z,99262.84
2022-09-16T08:34:06.718Z,99250.88
2022-09-16T08:36:33.845Z,99264.22
2022-09-16T08:39:25.399Z,99266.09
2022-09-16T08:42:06.626Z,99265.19
2022-09-16T08:44:50.500Z,99269.59
2022-09-16T08:47:29.134Z,99247.63
2022-09-16T08:49:58.662Z,99263.41
2022-09-16T08:52:30.060Z,99256.09
2022-09-16T08:55:37.007Z,99271.56
2022-09-16T08:58:10.252Z,99262.84
2022-09-16T09:00:38.402Z,99256.78
2022-09-16T09:03:36.035Z,99261.78
2022-09-16T09:06:09.264Z,99255.63
2022-09-16T09:08:44.788Z,99262.16
2022-09-16T09:11:45.179Z,99260.28
2022-09-16T09:14:36.442Z,99267.38
2022-09-16T09:17:27.315Z,99266.69
2022-09-16T09:20:09.593Z,99264.13
2022-09-16T09:23:08.015Z,99259.78
2022-09-16T09:25:43.041Z,99267.13
2022-09-16T09:28:38.472Z,99208.69
2022-09-16T09:31:43.102Z,99246.78
2022-09-16T09:34:31.491Z,99253.28
2022-09-16T09:37:18.342Z,99245.16
2022-09-16T09:39:56.598Z,99251.63
2022-09-16T09:42:39.643Z,99259.66
2022-09-16T09:45:16.969Z,99253.06
2022-09-16T09:47:56.789Z,99243.16
2022-09-16T09:50:36.283Z,99238.84
2022-09-16T09:53:28.623Z,99249.19
2022-09-16T09:56:04.439Z,99246.44
2022-09-16T09:59:19.992Z,99246.78
2022-09-16T10:01:46.605Z,99251.91
2022-09-16T10:04:16.121Z,99246.09
2022-09-16T10:06:45.864Z,99250.19
2022-09-16T10:09:14.984Z,99247.25
2022-09-16T10:11:50.772Z,99251.78
2022-09-16T10:14:33.778Z,99247.03
2022-09-16T10:17:03.002Z,99263.19
2022-09-16T10:19:34.941Z,99256.91
2022-09-16T10:22:32.349Z,99250.50
2022-09-16T10:25:07.867Z,99246.94
2022-09-16T10:27:37.476Z,99254.72
2022-09-16T10:30:15.252Z,99257.25
2022-09-16T10:33:01.902Z,99182.56
2022-09-16T10:35:31.413Z,99236.56
2022-09-16T10:38:05.694Z,99232.22
2022-09-16T10:40:33.809Z,99238.84
2022-09-16T10:43:07.137Z,99238.94
2022-09-16T10:45:36.941Z,99224.31
2022-09-16T10:48:14.777Z,99168.38
2022-09-16T10:51:02.208Z,99211.06
2022-09-16T10:53:32.195Z,99222.09
2022-09-16T10:56:01.651Z,99227.13
2022-09-16T10:58:28.481Z,99234.63
2022-09-16T11:00:58.264Z,99231.22
2022-09-16T11:04:00.346Z,99227.19
2022-09-16T11:06:53.025Z,99222.53
2022-09-16T11:09:34.310Z,99230.06
2022-09-16T11:12:14.651Z,99253.53
2022-09-16T11:15:09.441Z,99197.97
2022-09-16T11:17:52.604Z,99231.13
2022-09-16T11:20:45.827Z,99226.56
2022-09-16T11:23:18.436Z,99223.16
2022-09-16T11:25:56.936Z,99223.78
2022-09-16T11:28:53.723Z,99219.28
2022-09-16T11:31:52.714Z,99228.47
2022-09-16T11:34:25.213Z,99240.78
2022-09-16T11:36:58.129Z,99245.78
2022-09-16T11:39:52.669Z,99247.06
2022-09-16T11:42:33.953Z,99204.97
2022-09-16T11:45:56.837Z,99229.75
2022-09-16T11:48:26.118Z,99243.69
2022-09-16T11:51:03.100Z,99239.69
2022-09-16T11:53:48.087Z,99244.88
2022-09-16T11:56:27.713Z,99250.69
2022-09-16T11:59:01.722Z,99234.94
2022-09-16T12:01:32.231Z,99243.13
2022-09-16T12:04:10.341Z,99226.97
2022-09-16T12:06:47.181Z,99234.84
2022-09-16T12:09:51.901Z,99232.88
2022-09-16T12:12:22.259Z,99221.03
2022-09-16T12:14:56.011Z,99208.88
2022-09-16T12:17:28.006Z,99183.34
2022-09-16T12:20:03.618Z,99202.28
2022-09-16T12:22:36.336Z,99198.09
2022-09-16T12:25:22.451Z,99185.97
2022-09-16T12:28:15.846Z,99198.28
2022-09-16T12:30:47.194Z,99204.88
2022-09-16T12:33:20.845Z,99191.47
2022-09-16T12:35:59.280Z,99192.75
2022-09-16T12:38:26.147Z,99198.19
2022-09-16T12:41:17.793Z,99197.25
2022-09-16T12:44:33.414Z,99201.03
2022-09-16T12:47:09.619Z,99191.91
2022-09-16T12:50:05.058Z,99131.84
2022-09-16T12:53:04.729Z,99192.06
2022-09-16T12:55:46.708Z,99186.06
2022-09-16T12:59:06.999Z,99181.41
2022-09-16T13:01:41.615Z,99187.38
2022-09-16T13:04:22.520Z,99185.06
2022-09-16T13:06:52.659Z,99179.91
2022-09-16T13:09:30.981Z,99159.03
2022-09-16T13:12:36.654Z,99193.00
2022-09-16T13:14:52.078Z,99110.88
2022-09-16T13:17:37.783Z,99192.72
2022-09-16T13:20:17.868Z,99195.28
2022-09-16T13:22:53.440Z,99181.72
2022-09-16T13:25:25.068Z,99196.44
2022-09-16T13:27:57.507Z,99177.34
2022-09-16T13:30:30.264Z,99181.47
2022-09-16T13:33:03.205Z,99177.09
2022-09-16T13:35:39.981Z,99167.25
2022-09-16T13:38:18.872Z,99155.00
2022-09-16T13:40:57.353Z,99150.84
2022-09-16T13:43:42.183Z,99157.28
2022-09-16T13:46:18.543Z,99159.50
2022-09-16T13:49:03.332Z,99160.69
2022-09-16T13:51:36.076Z,99161.88
2022-09-16T13:54:04.287Z,99162.06
2022-09-16T13:56:48.927Z,99162.41
2022-09-16T13:59:20.705Z,99161.91
2022-09-16T14:02:09.279Z,99154.91
2022-09-16T14:04:44.853Z,99140.88
2022-09-16T14:07:30.085Z,99153.22
2022-09-16T14:10:06.336Z,99155.88
2022-09-16T14:12:50.040Z,99152.97
2022-09-16T14:15:18.662Z,99161.38
2022-09-16T14:17:51.526Z,99145.72
2022-09-16T14:20:21.865Z,99151.47
2022-09-16T14:22:49.004Z,99142.50
2022-09-16T14:25:36.388Z,99155.53
2022-09-16T14:28:23.121Z,99148.06
2022-09-16T14:30:58.460Z,99153.47
2022-09-16T14:33:33.793Z,99155.94
2022-09-16T14:36:01.612Z,99158.47
2022-09-16T14:39:03.202Z,99157.03
2022-09-16T14:41:41.262Z,99153.63
2022-09-16T14:44:20.004Z,99160.00
2022-09-16T14:46:52.797Z,99123.97
2022-09-16T14:49:24.467Z,99114.09
2022-09-16T14:51:55.654Z,99123.50
2022-09-16T14:54:24.275Z,99156.03
2022-09-16T14:57:22.715Z,99096.06
2022-09-16T14:59:52.195Z,99165.56
2022-09-16T15:02:44.696Z,99164.19
2022-09-16T15:05:34.648Z,99175.47
2022-09-16T15:08:14.279Z,99159.16
2022-09-16T15:10:51.932Z,99162.19
2022-09-16T15:13:22.719Z,99165.94
2022-09-16T15:15:52.461Z,99173.16
2022-09-16T15:18:26.882Z,99161.00
2022-09-16T15:21:03.108Z,99146.06
2022-09-16T15:23:30.839Z,99173.88
2022-09-16T15:26:06.391Z,99179.81
2022-09-16T15:28:33.339Z,99179.44
2022-09-16T15:31:00.173Z,99172.22
2022-09-16T15:33:34.636Z,99183.06
2022-09-16T15:36:02.292Z,99176.56
2022-09-16T15:38:29.261Z,99184.13
2022-09-16T15:41:03.902Z,99176.41
2022-09-16T15:43:53.647Z,99173.06
2022-09-16T15:46:24.329Z,99177.31
2022-09-16T15:48:55.665Z,99182.38
2022-09-16T15:51:39.326Z,99162.06
2022-09-16T15:54:23.901Z,99193.34
2022-09-16T15:56:50.545Z,99195.44
2022-09-16T15:59:42.141Z,99205.09
2022-09-16T16:02:33.295Z,99198.56
2022-09-16T16:05:14.130Z,99202.81
2022-09-16T16:07:44.453Z,99202.59
2022-09-16T16:10:23.761Z,99189.28
2022-09-16T16:12:52.032Z,99209.41
2022-09-16T16:15:21.956Z,99207.16
2022-09-16T16:17:49.680Z,99200.50
2022-09-16T16:20:17.866Z,99212.59
2022-09-16T16:22:45.190Z,99222.25
2022-09-16T16:25:13.168Z,99206.44
2022-09-16T16:27:40.548Z,99225.06
2022-09-16T16:30:08.443Z,99216.47
2022-09-16T16:32:35.542Z,99205.78
2022-09-16T16:35:02.236Z,99211.22
2022-09-16T16:37:45.369Z,99186.19
2022-09-16T16:40:12.560Z,99216.91
2022-09-16T16:42:40.227Z,99229.22
2022-09-16T16:45:14.498Z,99198.88
2022-09-16T16:47:42.122Z,99216.69
2022-09-16T16:50:11.887Z,99213.28
2022-09-16T16:52:39.187Z,99244.75
2022-09-16T16:55:06.738Z,99219.69
2022-09-16T16:57:33.331Z,99226.47
2022-09-16T16:59:59.953Z,99225.88
2022-09-16T17:02:26.670Z,99169.53
2022-09-16T17:04:53.307Z,99199.09
2022-09-16T17:07:28.139Z,99211.28
2022-09-16T17:09:58.559Z,99210.09
2022-09-16T17:12:26.063Z,99227.66
2022-09-16T17:14:52.737Z,99237.00
2022-09-16T17:17:19.716Z,99203.47
2022-09-16T17:19:46.345Z,99208.41
2022-09-16T17:22:13.104Z,99241.78
2022-09-16T17:24:39.870Z,99195.13
2022-09-16T17:27:27.579Z,99248.25
2022-09-16T17:29:54.304Z,99229.91
2022-09-16T17:32:21.063Z,99265.88
2022-09-16T17:34:47.794Z,99267.75
2022-09-16T17:37:15.150Z,99242.66
2022-09-16T17:39:42.194Z,99237.84
2022-09-16T17:42:08.872Z,99262.25
2022-09-16T17:45:06.333Z,99291.91
2022-09-16T17:47:35.667Z,99288.56
2022-09-16T17:50:05.118Z,99281.16
2022-09-16T17:52:31.784Z,99307.38
2022-09-16T17:54:59.096Z,99284.25
2022-09-16T17:57:32.529Z,99246.34
2022-09-16T17:59:59.893Z,99297.66
2022-09-16T18:02:27.118Z,99289.44
2022-09-16T18:04:53.835Z,99265.91
2022-09-16T18:07:20.752Z,99286.84
2022-09-16T18:09:47.539Z,99243.09
2022-09-16T18:12:14.488Z,99268.78
2022-09-16T18:14:41.130Z,99286.97
2022-09-16T18:17:07.901Z,99306.03
2022-09-16T18:19:34.787Z,99298.31
2022-09-16T18:22:01.492Z,99299.06
2022-09-16T18:24:28.329Z,99308.25
2022-09-16T18:27:07.248Z,99325.66
2022-09-16T18:29:34.052Z,99318.09
2022-09-16T18:32:00.833Z,99327.19
2022-09-16T18:34:32.706Z,99323.53
2022-09-16T18:37:01.394Z,99320.22
2022-09-16T18:39:28.065Z,99326.47
2022-09-16T18:41:55.933Z,99294.16
2022-09-16T18:44:25.996Z,99333.97
2022-09-16T18:46:53.383Z,99274.94
2022-09-16T18:49:29.011Z,99339.44
2022-09-16T18:51:56.233Z,99331.03
2022-09-16T18:54:27.949Z,99335.75
2022-09-16T18:57:00.195Z,99345.94
2022-09-16T18:59:29.637Z,99342.25
2022-09-16T19:01:59.911Z,99349.84
2022-09-16T19:04:28.955Z,99356.03
2022-09-16T19:06:59.251Z,99350.91
2022-09-16T19:09:26.350Z,99288.44
2022-09-16T19:11:54.932Z,99350.91
2022-09-16T19:14:24.559Z,99352.50
2022-09-16T19:16:52.228Z,99340.81
2022-09-16T19:19:19.706Z,99347.56
2022-09-16T19:21:47.301Z,99327.09
2022-09-16T19:24:23.117Z,99347.00
2022-09-16T19:26:52.814Z,99343.28
2022-09-16T19:29:20.669Z,99293.47
2022-09-16T19:31:49.492Z,99348.16
2022-09-16T19:34:16.543Z,99328.31
2022-09-16T19:36:43.989Z,99340.88
2022-09-16T19:39:12.315Z,99284.59
2022-09-16T19:41:40.240Z,99328.78
2022-09-16T19:44:14.195Z,99371.53
2022-09-16T19:46:42.807Z,99357.81
2022-09-16T19:49:14.866Z,99341.91
2022-09-16T19:51:42.154Z,99371.75
2022-09-16T19:54:08.963Z,99370.56
2022-09-16T19:56:35.711Z,99374.91
2022-09-16T19:59:03.013Z,99339.38
2022-09-16T20:01:32.949Z,99347.34
2022-09-16T20:04:00.763Z,99335.31
2022-09-16T20:06:31.716Z,99380.47
2022-09-16T20:09:00.955Z,99336.75
2022-09-16T20:11:30.035Z,99308.78
2022-09-16T20:14:01.751Z,99380.50
2022-09-16T20:16:37.546Z,99378.44
2022-09-16T20:19:06.243Z,99363.97
2022-09-16T20:21:35.112Z,99375.41
2022-09-16T20:24:05.675Z,99389.72
2022-09-16T20:26:38.658Z,99386.84
2022-09-16T20:29:05.411Z,99348.44
2022-09-16T20:31:34.551Z,99390.34
2022-09-16T20:34:01.981Z,99395.44
2022-09-16T20:36:30.925Z,99392.59
2022-09-16T20:39:00.924Z,99404.63
2022-09-16T20:41:29.965Z,99362.94
2022-09-16T20:43:56.893Z,99392.78
2022-09-16T20:46:26.173Z,99409.97
2022-09-16T20:48:55.669Z,99409.13
2022-09-16T20:51:25.734Z,99398.09
2022-09-16T20:53:57.963Z,99408.94
2022-09-16T20:56:25.985Z,99417.13
2022-09-16T20:58:52.883Z,99381.75
2022-09-16T21:01:26.818Z,99404.22
2022-09-16T21:03:57.970Z,99396.66
2022-09-16T21:06:26.396Z,99401.56
2022-09-16T21:08:55.031Z,99420.16
2022-09-16T21:11:22.136Z,99395.25
2022-09-16T21:13:58.260Z,99414.44
2022-09-16T21:16:26.825Z,99422.03
2022-09-16T21:18:55.231Z,99435.31
2022-09-16T21:21:24.466Z,99361.50
2022-09-16T21:23:53.415Z,99426.91
2022-09-16T21:26:23.788Z,99439.81
2022-09-16T21:29:11.546Z,99442.03
2022-09-16T21:31:40.877Z,99393.78
2022-09-16T21:34:16.671Z,99440.19
2022-09-16T21:36:44.485Z,99433.81
2022-09-16T21:39:14.163Z,99418.09
2022-09-16T21:41:41.667Z,99440.19
2022-09-16T21:44:09.876Z,99449.97
2022-09-16T21:46:42.861Z,99442.19
2022-09-16T21:49:16.936Z,99376.28
2022-09-16T21:51:51.011Z,99442.78
2022-09-16T21:54:20.186Z,99453.41
2022-09-16T21:56:48.808Z,99447.06
2022-09-16T21:59:15.838Z,99449.88
2022-09-16T22:01:42.419Z,99410.75
2022-09-16T22:04:15.044Z,99430.84
2022-09-16T22:06:42.792Z,99460.69
2022-09-16T22:09:10.093Z,99468.44
2022-09-16T22:11:39.441Z,99456.97
2022-09-16T22:14:06.408Z,99451.06
2022-09-16T22:16:48.576Z,99449.59
2022-09-16T22:19:17.967Z,99452.66
2022-09-16T22:21:47.119Z,99454.69
2022-09-16T22:24:16.140Z,99453.06
2022-09-16T22:26:43.485Z,99454.28
2022-09-16T22:29:11.761Z,99456.31
2022-09-16T22:31:40.498Z,99451.19
2022-09-16T22:34:13.243Z,99429.28
2022-09-16T22:36:39.935Z,99381.63
2022-09-16T22:39:18.151Z,99456.47
2022-09-16T22:41:44.928Z,99450.31
2022-09-16T22:44:12.616Z,99382.38
2022-09-16T22:46:45.073Z,99381.13
2022-09-16T22:49:12.562Z,99445.38
2022-09-16T22:51:39.927Z,99447.84
2022-09-16T22:54:07.665Z,99449.03
2022-09-16T22:56:34.678Z,99442.94
2022-09-16T22:59:03.624Z,99414.72
2022-09-16T23:01:36.859Z,99446.81
2022-09-16T23:04:05.435Z,99442.94
2022-09-16T23:06:33.668Z,99447.00
2022-09-16T23:09:00.698Z,99448.22
2022-09-16T23:11:30.150Z,99439.22
2022-09-16T23:13:57.639Z,99431.22
2022-09-16T23:16:30.078Z,99457.16
2022-09-16T23:18:59.580Z,99446.69
2022-09-16T23:21:26.770Z,99458.53
2022-09-16T23:23:57.052Z,99443.25
2022-09-16T23:26:26.881Z,99426.06
2022-09-16T23:28:55.288Z,99449.22
2022-09-16T23:31:24.737Z,99451.94
2022-09-16T23:33:52.699Z,99434.75
2022-09-16T23:36:20.220Z,99316.69
2022-09-16T23:38:48.087Z,99423.50
2022-09-16T23:41:38.387Z,99429.00
2022-09-16T23:44:05.545Z,99461.09
2022-09-16T23:46:32.485Z,99439.75
2022-09-16T23:48:59.337Z,99419.44
2022-09-16T23:51:28.648Z,99454.78
2022-09-16T23:53:57.160Z,99454.78
2022-09-16T23:56:25.626Z,99452.78
2022-09-16T23:58:52.732Z,99452.16
